Scott R. Wilson — WDA5062 — position and weather

sailwx.info

Track history (hours):
 
Tides and Currents Weather Stations Pressure Air Temp Water Temp Dewpoint Dewpoint Depression Visibility Wind Speed Wind Dir Waves Ship Positions

Scott R. Wilson

Owner: BLESSY ENTERPRISES INC, HARAHAN, LA. More information available from US FCC via Universal Licensing System.

Last reported at 2018-Jul-22 16:30 UTC. Time now 2018-Jul-22 16:42 UTC.
Position N 29°58' W 093°11'.

Length 23 m; draft 2.6 m.

Type: Tow > 200 m length. MMSI: 366816020.

Date/timePositionNaut miles runAvg speedWind from/ knotsBaromVisibWave heightAir tempDewpointWater temp
2018-Jul-22 16:30N 29°58' W 093°11'3 5.5
2018-Jul-22 16:00N 29°56' W 093°08'4 2.1
2018-Jul-22 13:59N 29°56' W 093°03'0 0.0
2018-Jul-22 12:40N 29°56' W 093°03'0 0.0
2018-Jul-22 12:21N 29°56' W 093°03'0 0.0
2018-Jul-22 11:47N 29°56' W 093°03'0 0.0
2018-Jul-22 11:28N 29°56' W 093°03'0 0.0
2018-Jul-22 10:54N 29°56' W 093°03'0 0.2
2018-Jul-22 10:28N 29°56' W 093°03'0 0.0
2018-Jul-22 10:00N 29°56' W 093°03'0 0.0
2018-Jul-22 09:29N 29°56' W 093°03'0 0.0
2018-Jul-22 09:00N 29°56' W 093°03'0 0.0
2018-Jul-22 08:30N 29°56' W 093°03'0 0.0
2018-Jul-22 07:58N 29°56' W 093°03'0 0.0
2018-Jul-22 07:30N 29°56' W 093°03'0 0.0
2018-Jul-22 07:00N 29°56' W 093°03'0 0.0
2018-Jul-22 06:30N 29°56' W 093°03'0 0.0
2018-Jul-22 06:00N 29°56' W 093°03'0 0.0
2018-Jul-22 05:30N 29°56' W 093°03'0 0.0
2018-Jul-22 05:00N 29°56' W 093°03'0 0.0
2018-Jul-22 04:30N 29°56' W 093°03'0 0.0
2018-Jul-22 04:00N 29°56' W 093°03'0 0.0
2018-Jul-22 03:30N 29°56' W 093°03'0 0.0
2018-Jul-22 02:53N 29°56' W 093°03'0 0.0
2018-Jul-22 02:30N 29°56' W 093°03'0 0.0
2018-Jul-22 01:58N 29°56' W 093°03'0 0.0
2018-Jul-22 01:30N 29°56' W 093°03'0 0.0
2018-Jul-22 00:25N 29°56' W 093°03'8 1.1
2018-Jul-21 17:22N 29°57' W 092°54'0 0.0
2018-Jul-21 11:33N 29°57' W 092°54'0 0.0
2018-Jul-21 11:30N 29°57' W 092°54'0 0.0
2018-Jul-21 11:00N 29°57' W 092°54'0 0.0
2018-Jul-21 10:29N 29°57' W 092°54'0 0.0
2018-Jul-21 09:59N 29°57' W 092°54'0 0.0
2018-Jul-21 09:24N 29°57' W 092°54'0 0.0
2018-Jul-21 08:59N 29°57' W 092°54'0 0.0
2018-Jul-21 08:30N 29°57' W 092°54'0 0.0
2018-Jul-21 08:00N 29°57' W 092°54'0 0.0
2018-Jul-21 07:30N 29°57' W 092°54'0 0.0
2018-Jul-21 07:00N 29°57' W 092°54'0 0.0
2018-Jul-21 06:30N 29°57' W 092°54'0 0.0
2018-Jul-21 06:00N 29°57' W 092°54'0 0.1
2018-Jul-21 05:30N 29°57' W 092°54'0 0.1
2018-Jul-21 05:00N 29°57' W 092°54'1 1.3
2018-Jul-21 04:30N 29°57' W 092°53'2 2.2
2018-Jul-21 03:47N 29°57' W 092°52'0 0.0
2018-Jul-21 03:23N 29°57' W 092°52'0 0.4
2018-Jul-21 02:59N 29°57' W 092°51'3 5.3
2018-Jul-21 02:30N 29°58' W 092°49'3 4.8
2018-Jul-21 01:58N 29°58' W 092°46'0 0.0
2018-Jul-21 01:30N 29°58' W 092°46'0 0.0
2018-Jul-21 00:47N 29°58' W 092°46'0 0.0
2018-Jul-21 00:23N 29°58' W 092°46'22 3.6
2018-Jul-20 18:14N 29°51' W 092°22'2 5.3
2018-Jul-20 17:53N 29°50' W 092°20'2 5.3
2018-Jul-20 17:27N 29°49' W 092°17'2 4.5
2018-Jul-20 17:00N 29°48' W 092°15'3 5.7
2018-Jul-20 16:30N 29°47' W 092°12'1 2.7
2018-Jul-20 16:00N 29°47' W 092°11'2 3.8
2018-Jul-20 15:30N 29°47' W 092°09'3 5.1
2018-Jul-20 15:00N 29°48' W 092°06'3 6.2
2018-Jul-20 14:30N 29°49' W 092°02'  
Track history (hours):
 
Tides and Currents Weather Stations Pressure Air Temp Water Temp Dewpoint Dewpoint Depression Visibility Wind Speed Wind Dir Waves Ship Positions

Scott R. Wilson

Owner: BLESSY ENTERPRISES INC, HARAHAN, LA. More information available from US FCC via Universal Licensing System.

Last reported at 2018-Jul-22 16:30 UTC. Time now 2018-Jul-22 16:42 UTC.
Position N 29°58' W 093°11'.

Length 23 m; draft 2.6 m.

Type: Tow > 200 m length. MMSI: 366816020.

Date/timePositionNaut miles runAvg speedWind from/ knotsBaromVisibWave heightAir tempDewpointWater temp
2018-Jul-22 16:30N 29°58' W 093°11'3 5.5
2018-Jul-22 16:00N 29°56' W 093°08'4 2.1
2018-Jul-22 13:59N 29°56' W 093°03'0 0.0
2018-Jul-22 12:40N 29°56' W 093°03'0 0.0
2018-Jul-22 12:21N 29°56' W 093°03'0 0.0
2018-Jul-22 11:47N 29°56' W 093°03'0 0.0
2018-Jul-22 11:28N 29°56' W 093°03'0 0.0
2018-Jul-22 10:54N 29°56' W 093°03'0 0.2
2018-Jul-22 10:28N 29°56' W 093°03'0 0.0
2018-Jul-22 10:00N 29°56' W 093°03'0 0.0
2018-Jul-22 09:29N 29°56' W 093°03'0 0.0
2018-Jul-22 09:00N 29°56' W 093°03'0 0.0
2018-Jul-22 08:30N 29°56' W 093°03'0 0.0
2018-Jul-22 07:58N 29°56' W 093°03'0 0.0
2018-Jul-22 07:30N 29°56' W 093°03'0 0.0
2018-Jul-22 07:00N 29°56' W 093°03'0 0.0
2018-Jul-22 06:30N 29°56' W 093°03'0 0.0
2018-Jul-22 06:00N 29°56' W 093°03'0 0.0
2018-Jul-22 05:30N 29°56' W 093°03'0 0.0
2018-Jul-22 05:00N 29°56' W 093°03'0 0.0
2018-Jul-22 04:30N 29°56' W 093°03'0 0.0
2018-Jul-22 04:00N 29°56' W 093°03'0 0.0
2018-Jul-22 03:30N 29°56' W 093°03'0 0.0
2018-Jul-22 02:53N 29°56' W 093°03'0 0.0
2018-Jul-22 02:30N 29°56' W 093°03'0 0.0
2018-Jul-22 01:58N 29°56' W 093°03'0 0.0
2018-Jul-22 01:30N 29°56' W 093°03'0 0.0
2018-Jul-22 00:25N 29°56' W 093°03'8 1.1
2018-Jul-21 17:22N 29°57' W 092°54'0 0.0
2018-Jul-21 11:33N 29°57' W 092°54'0 0.0
2018-Jul-21 11:30N 29°57' W 092°54'0 0.0
2018-Jul-21 11:00N 29°57' W 092°54'0 0.0
2018-Jul-21 10:29N 29°57' W 092°54'0 0.0
2018-Jul-21 09:59N 29°57' W 092°54'0 0.0
2018-Jul-21 09:24N 29°57' W 092°54'0 0.0
2018-Jul-21 08:59N 29°57' W 092°54'0 0.0
2018-Jul-21 08:30N 29°57' W 092°54'0 0.0
2018-Jul-21 08:00N 29°57' W 092°54'0 0.0
2018-Jul-21 07:30N 29°57' W 092°54'0 0.0
2018-Jul-21 07:00N 29°57' W 092°54'0 0.0
2018-Jul-21 06:30N 29°57' W 092°54'0 0.0
2018-Jul-21 06:00N 29°57' W 092°54'0 0.1
2018-Jul-21 05:30N 29°57' W 092°54'0 0.1
2018-Jul-21 05:00N 29°57' W 092°54'1 1.3
2018-Jul-21 04:30N 29°57' W 092°53'2 2.2
2018-Jul-21 03:47N 29°57' W 092°52'0 0.0
2018-Jul-21 03:23N 29°57' W 092°52'0 0.4
2018-Jul-21 02:59N 29°57' W 092°51'3 5.3
2018-Jul-21 02:30N 29°58' W 092°49'3 4.8
2018-Jul-21 01:58N 29°58' W 092°46'0 0.0
2018-Jul-21 01:30N 29°58' W 092°46'0 0.0
2018-Jul-21 00:47N 29°58' W 092°46'0 0.0
2018-Jul-21 00:23N 29°58' W 092°46'22 3.6
2018-Jul-20 18:14N 29°51' W 092°22'2 5.3
2018-Jul-20 17:53N 29°50' W 092°20'2 5.3
2018-Jul-20 17:27N 29°49' W 092°17'2 4.5
2018-Jul-20 17:00N 29°48' W 092°15'3 5.7
2018-Jul-20 16:30N 29°47' W 092°12'1 2.7
2018-Jul-20 16:00N 29°47' W 092°11'2 3.8
2018-Jul-20 15:30N 29°47' W 092°09'3 5.1
2018-Jul-20 15:00N 29°48' W 092°06'3 6.2
2018-Jul-20 14:30N 29°49' W 092°02'  

Dump ship's entire track history